EW2581 Weather Reports


time (UTC)temp
F
wind
direction
speed
knots
gust
knots
rain 1hr
in
rain 24hr
in
rain mn
in
humidity
%
barometer
mb
20260504081546 36 360 0.0 0.0 0.00 0.00 0.00 67 1006.9
20260504044522 48 360 0.0 0.0 0.00 0.00 0.00 49 1008.0
20260504043027 48 360 0.0 0.0 0.00 0.00 0.00 48 1007.9
20260504041531 50 360 0.0 0.0 0.00 0.00 0.00 44 1008.0
20260504040020 50 360 0.0 0.0 0.00 0.00 0.00 41 1008.4
20260504034520 51 360 0.0 0.0 0.00 0.00 0.00 36 1008.8
20260504033020 51 360 0.0 0.0 0.00 0.00 0.00 35 1008.5
20260504031519 51 360 0.0 0.0 0.00 0.00 0.00 37 1008.3
20260504030018 54 360 0.0 0.0 0.00 0.00 0.00 32 1008.3
20260504024520 54 360 0.0 0.0 0.00 0.00 0.00 29 1008.0
20260504023018 55 360 0.0 0.0 0.00 0.00 0.00 31 1008.0
20260504021518 55 360 0.0 0.0 0.00 0.00 0.00 30 1007.9
20260504020021 57 360 0.0 0.0 0.00 0.00 0.00 28 1007.9
20260504014524 59 360 0.0 0.0 0.00 0.00 0.00 23 1007.6
20260504013021 60 360 0.0 0.0 0.00 0.00 0.00 23 1007.6
20260504011515 61 360 0.0 0.0 0.00 0.00 0.00 20 1007.5
20260504010014 62 360 0.0 0.0 0.00 0.00 0.00 19 1007.6
20260504004519 63 360 0.0 0.0 0.00 0.00 0.00 17 1007.7
20260504003014 64 360 0.0 0.0 0.00 0.00 0.00 17 1007.7
20260504001513 64 360 0.0 0.0 0.00 0.00 0.00 17 1007.6
20260504000012 64 360 0.0 0.0 0.00 0.00 0.00 18 1007.9
20260503234511 65 360 0.0 0.0 0.00 0.00 0.00 16 1008.0
20260503233016 65 360 0.0 0.0 0.00 0.00 0.00 20 1008.2
20260503231508 64 360 0.0 0.0 0.00 0.00 0.00 19 1008.3
20260503230010 63 360 0.0 0.0 0.00 0.00 0.00 20 1008.4
20260503224507 64 360 0.0 0.0 0.00 0.00 0.00 20 1008.4
20260503223007 64 360 0.0 0.0 0.00 0.00 0.00 21 1008.6
20260503221504 63 360 0.0 0.0 0.00 0.00 0.00 21 1008.8
20260503220003 64 360 0.0 0.0 0.00 0.00 0.00 20 1008.9
20260503214505 64 360 0.0 0.0 0.00 0.00 0.00 20 1009.0
20260503213100 63 360 0.0 0.0 0.00 0.00 0.00 21 1009.1
20260503211559 63 360 0.0 0.0 0.00 0.00 0.00 20 1009.4
20260503210100 64 360 0.0 0.0 0.00 0.00 0.00 20 1009.7
20260503204557 63 360 0.0 0.0 0.00 0.00 0.00 20 1010.0
20260503203057 63 360 0.0 0.0 0.00 0.00 0.00 19 1010.4
20260503201552 64 360 0.0 0.0 0.00 0.00 0.00 19 1010.5
20260503200055 63 360 0.0 0.0 0.00 0.00 0.00 18 1010.6
20260503194558 63 360 0.0 0.0 0.00 0.00 0.00 20 1010.8
20260503193049 62 360 0.0 0.0 0.00 0.00 0.00 20 1010.9
20260503191553 63 360 0.0 0.0 0.00 0.00 0.00 20 1011.2
20260503190047 62 360 0.0 0.0 0.00 0.00 0.00 21 1011.5
20260503184545 62 360 0.0 0.0 0.00 0.00 0.00 21 1011.5
20260503183043 61 360 0.0 0.0 0.00 0.00 0.00 22 1011.7
20260503181542 61 360 0.0 0.0 0.00 0.00 0.00 22 1012.0
20260503180045 61 360 0.0 0.0 0.00 0.00 0.00 21 1012.0
20260503174538 60 360 0.0 0.0 0.00 0.00 0.00 24 1012.3
20260503173038 60 360 0.0 0.0 0.00 0.00 0.00 26 1012.4
20260503171540 60 360 0.0 0.0 0.00 0.00 0.00 26 1012.6